sensor_id;sensor_type;location;lat;lon;timestamp;P1;durP1;ratioP1;P2;durP2;ratioP2
10517;SDS011;5307;42.548;22.968;2022-08-19T00:01:35;8.50;;;6.57;;
10517;SDS011;5307;42.548;22.968;2022-08-19T00:06:57;6.85;;;6.15;;
10517;SDS011;5307;42.548;22.968;2022-08-19T00:09:25;7.13;;;6.45;;
10517;SDS011;5307;42.548;22.968;2022-08-19T00:11:53;8.25;;;6.00;;
10517;SDS011;5307;42.548;22.968;2022-08-19T00:14:22;7.50;;;6.32;;
10517;SDS011;5307;42.548;22.968;2022-08-19T00:16:51;7.00;;;5.95;;
10517;SDS011;5307;42.548;22.968;2022-08-19T00:19:19;7.55;;;6.00;;
10517;SDS011;5307;42.548;22.968;2022-08-19T00:21:46;6.60;;;5.95;;
10517;SDS011;5307;42.548;22.968;2022-08-19T00:24:13;6.40;;;5.78;;
10517;SDS011;5307;42.548;22.968;2022-08-19T00:26:41;6.72;;;6.03;;
10517;SDS011;5307;42.548;22.968;2022-08-19T00:29:10;6.80;;;5.70;;
10517;SDS011;5307;42.548;22.968;2022-08-19T00:31:38;6.72;;;6.03;;
10517;SDS011;5307;42.548;22.968;2022-08-19T00:34:06;7.45;;;6.00;;
10517;SDS011;5307;42.548;22.968;2022-08-19T00:36:33;7.10;;;6.10;;
10517;SDS011;5307;42.548;22.968;2022-08-19T00:39:00;9.27;;;6.15;;
10517;SDS011;5307;42.548;22.968;2022-08-19T00:41:27;7.65;;;5.85;;
10517;SDS011;5307;42.548;22.968;2022-08-19T00:43:59;7.88;;;6.28;;
10517;SDS011;5307;42.548;22.968;2022-08-19T00:46:28;7.30;;;6.03;;
10517;SDS011;5307;42.548;22.968;2022-08-19T00:48:56;8.20;;;6.47;;
10517;SDS011;5307;42.548;22.968;2022-08-19T00:51:25;7.82;;;6.47;;
10517;SDS011;5307;42.548;22.968;2022-08-19T00:53:57;6.43;;;5.80;;
10517;SDS011;5307;42.548;22.968;2022-08-19T00:56:26;11.90;;;6.70;;
10517;SDS011;5307;42.548;22.968;2022-08-19T00:58:53;9.98;;;6.45;;
10517;SDS011;5307;42.548;22.968;2022-08-19T01:01:22;8.93;;;6.15;;
10517;SDS011;5307;42.548;22.968;2022-08-19T01:03:49;8.18;;;6.70;;
10517;SDS011;5307;42.548;22.968;2022-08-19T01:06:16;7.00;;;6.30;;
10517;SDS011;5307;42.548;22.968;2022-08-19T01:08:45;15.27;;;6.53;;
10517;SDS011;5307;42.548;22.968;2022-08-19T01:11:12;12.55;;;6.40;;
10517;SDS011;5307;42.548;22.968;2022-08-19T01:13:39;12.15;;;7.05;;
10517;SDS011;5307;42.548;22.968;2022-08-19T01:16:06;10.57;;;6.53;;
10517;SDS011;5307;42.548;22.968;2022-08-19T01:18:36;9.43;;;5.95;;
10517;SDS011;5307;42.548;22.968;2022-08-19T01:21:08;9.80;;;6.07;;
10517;SDS011;5307;42.548;22.968;2022-08-19T01:23:41;8.27;;;6.45;;
10517;SDS011;5307;42.548;22.968;2022-08-19T01:26:09;6.70;;;6.00;;
10517;SDS011;5307;42.548;22.968;2022-08-19T01:28:38;7.57;;;6.78;;
10517;SDS011;5307;42.548;22.968;2022-08-19T01:31:06;7.40;;;6.10;;
10517;SDS011;5307;42.548;22.968;2022-08-19T01:33:36;9.00;;;7.18;;
10517;SDS011;5307;42.548;22.968;2022-08-19T01:36:05;8.68;;;6.85;;
10517;SDS011;5307;42.548;22.968;2022-08-19T01:38:35;13.73;;;7.28;;
10517;SDS011;5307;42.548;22.968;2022-08-19T01:41:05;12.57;;;7.57;;
10517;SDS011;5307;42.548;22.968;2022-08-19T01:43:32;7.95;;;6.90;;
10517;SDS011;5307;42.548;22.968;2022-08-19T01:45:59;10.55;;;7.07;;
10517;SDS011;5307;42.548;22.968;2022-08-19T01:48:32;8.43;;;6.65;;
10517;SDS011;5307;42.548;22.968;2022-08-19T01:51:00;7.70;;;6.90;;
10517;SDS011;5307;42.548;22.968;2022-08-19T01:53:27;13.95;;;7.57;;
10517;SDS011;5307;42.548;22.968;2022-08-19T01:55:54;7.80;;;7.03;;
10517;SDS011;5307;42.548;22.968;2022-08-19T01:58:23;8.43;;;6.57;;
10517;SDS011;5307;42.548;22.968;2022-08-19T02:00:55;10.07;;;6.95;;
10517;SDS011;5307;42.548;22.968;2022-08-19T02:03:22;7.82;;;7.03;;
10517;SDS011;5307;42.548;22.968;2022-08-19T02:05:53;10.48;;;7.03;;
10517;SDS011;5307;42.548;22.968;2022-08-19T02:08:20;9.05;;;7.18;;
10517;SDS011;5307;42.548;22.968;2022-08-19T02:10:47;9.23;;;7.22;;
10517;SDS011;5307;42.548;22.968;2022-08-19T02:13:15;12.15;;;7.45;;
10517;SDS011;5307;42.548;22.968;2022-08-19T02:15:43;9.32;;;6.80;;
10517;SDS011;5307;42.548;22.968;2022-08-19T02:18:10;7.80;;;6.97;;
10517;SDS011;5307;42.548;22.968;2022-08-19T02:20:38;23.73;;;7.50;;
10517;SDS011;5307;42.548;22.968;2022-08-19T02:23:08;9.38;;;7.25;;
10517;SDS011;5307;42.548;22.968;2022-08-19T02:25:35;17.00;;;8.00;;
10517;SDS011;5307;42.548;22.968;2022-08-19T02:28:02;11.40;;;8.25;;
10517;SDS011;5307;42.548;22.968;2022-08-19T02:30:30;7.93;;;7.10;;
10517;SDS011;5307;42.548;22.968;2022-08-19T02:32:59;10.35;;;7.75;;
10517;SDS011;5307;42.548;22.968;2022-08-19T02:35:26;9.73;;;8.02;;
10517;SDS011;5307;42.548;22.968;2022-08-19T02:37:53;11.77;;;7.82;;
10517;SDS011;5307;42.548;22.968;2022-08-19T02:40:38;11.02;;;7.63;;
10517;SDS011;5307;42.548;22.968;2022-08-19T02:43:05;13.93;;;7.32;;
10517;SDS011;5307;42.548;22.968;2022-08-19T02:45:34;10.63;;;7.07;;
10517;SDS011;5307;42.548;22.968;2022-08-19T02:48:03;11.82;;;7.57;;
10517;SDS011;5307;42.548;22.968;2022-08-19T02:50:30;9.15;;;7.45;;
10517;SDS011;5307;42.548;22.968;2022-08-19T02:52:57;11.35;;;7.03;;
10517;SDS011;5307;42.548;22.968;2022-08-19T02:55:24;12.07;;;7.40;;
10517;SDS011;5307;42.548;22.968;2022-08-19T02:57:51;14.65;;;7.65;;
10517;SDS011;5307;42.548;22.968;2022-08-19T03:00:17;9.35;;;6.65;;
10517;SDS011;5307;42.548;22.968;2022-08-19T03:02:44;9.25;;;7.40;;
10517;SDS011;5307;42.548;22.968;2022-08-19T03:05:13;12.57;;;7.32;;
10517;SDS011;5307;42.548;22.968;2022-08-19T03:07:40;14.57;;;7.70;;
10517;SDS011;5307;42.548;22.968;2022-08-19T03:10:07;17.10;;;7.65;;
10517;SDS011;5307;42.548;22.968;2022-08-19T03:12:35;14.40;;;7.32;;
10517;SDS011;5307;42.548;22.968;2022-08-19T03:15:03;17.35;;;8.45;;
10517;SDS011;5307;42.548;22.968;2022-08-19T03:17:32;20.02;;;7.38;;
10517;SDS011;5307;42.548;22.968;2022-08-19T03:19:59;15.00;;;7.28;;
10517;SDS011;5307;42.548;22.968;2022-08-19T03:22:28;14.77;;;7.68;;
10517;SDS011;5307;42.548;22.968;2022-08-19T03:24:55;11.52;;;6.47;;
10517;SDS011;5307;42.548;22.968;2022-08-19T03:27:22;13.73;;;7.15;;
10517;SDS011;5307;42.548;22.968;2022-08-19T03:29:49;9.38;;;7.45;;
10517;SDS011;5307;42.548;22.968;2022-08-19T03:32:16;21.17;;;6.95;;
10517;SDS011;5307;42.548;22.968;2022-08-19T03:34:43;9.25;;;6.85;;
10517;SDS011;5307;42.548;22.968;2022-08-19T03:37:10;17.30;;;7.32;;
10517;SDS011;5307;42.548;22.968;2022-08-19T03:39:40;9.77;;;6.53;;
10517;SDS011;5307;42.548;22.968;2022-08-19T03:42:07;16.52;;;7.28;;
10517;SDS011;5307;42.548;22.968;2022-08-19T03:44:37;7.88;;;6.45;;
10517;SDS011;5307;42.548;22.968;2022-08-19T03:47:04;11.45;;;6.88;;
10517;SDS011;5307;42.548;22.968;2022-08-19T03:49:32;18.30;;;6.88;;
10517;SDS011;5307;42.548;22.968;2022-08-19T03:52:00;13.45;;;7.28;;
10517;SDS011;5307;42.548;22.968;2022-08-19T03:54:30;12.77;;;6.72;;
10517;SDS011;5307;42.548;22.968;2022-08-19T03:56:58;8.85;;;6.75;;
10517;SDS011;5307;42.548;22.968;2022-08-19T03:59:26;26.48;;;7.53;;
10517;SDS011;5307;42.548;22.968;2022-08-19T04:01:55;16.55;;;7.20;;
10517;SDS011;5307;42.548;22.968;2022-08-19T04:04:23;16.90;;;7.82;;
10517;SDS011;5307;42.548;22.968;2022-08-19T04:06:50;15.57;;;7.03;;
10517;SDS011;5307;42.548;22.968;2022-08-19T04:09:18;15.73;;;7.28;;
10517;SDS011;5307;42.548;22.968;2022-08-19T04:11:47;16.00;;;7.63;;
10517;SDS011;5307;42.548;22.968;2022-08-19T04:14:17;19.60;;;7.70;;
10517;SDS011;5307;42.548;22.968;2022-08-19T04:16:46;22.35;;;7.45;;
10517;SDS011;5307;42.548;22.968;2022-08-19T04:19:14;11.60;;;7.25;;
10517;SDS011;5307;42.548;22.968;2022-08-19T04:21:43;19.85;;;8.00;;
10517;SDS011;5307;42.548;22.968;2022-08-19T04:24:11;22.60;;;7.90;;
10517;SDS011;5307;42.548;22.968;2022-08-19T04:26:38;23.35;;;8.85;;
10517;SDS011;5307;42.548;22.968;2022-08-19T04:29:07;15.93;;;7.47;;
10517;SDS011;5307;42.548;22.968;2022-08-19T04:31:37;19.35;;;8.20;;
10517;SDS011;5307;42.548;22.968;2022-08-19T04:34:06;20.60;;;8.48;;
10517;SDS011;5307;42.548;22.968;2022-08-19T04:36:35;20.98;;;8.80;;
10517;SDS011;5307;42.548;22.968;2022-08-19T04:39:04;19.33;;;9.07;;
10517;SDS011;5307;42.548;22.968;2022-08-19T04:41:32;16.10;;;8.98;;
10517;SDS011;5307;42.548;22.968;2022-08-19T04:44:17;15.45;;;9.10;;
10517;SDS011;5307;42.548;22.968;2022-08-19T04:46:45;15.77;;;8.57;;
10517;SDS011;5307;42.548;22.968;2022-08-19T04:49:13;15.43;;;8.40;;
10517;SDS011;5307;42.548;22.968;2022-08-19T04:51:41;13.02;;;8.80;;
10517;SDS011;5307;42.548;22.968;2022-08-19T04:54:11;13.00;;;9.23;;
10517;SDS011;5307;42.548;22.968;2022-08-19T04:56:42;15.30;;;9.18;;
10517;SDS011;5307;42.548;22.968;2022-08-19T04:59:09;16.67;;;9.25;;
10517;SDS011;5307;42.548;22.968;2022-08-19T05:01:36;14.00;;;7.93;;
10517;SDS011;5307;42.548;22.968;2022-08-19T05:04:05;15.32;;;7.82;;
10517;SDS011;5307;42.548;22.968;2022-08-19T05:06:33;16.58;;;8.80;;
10517;SDS011;5307;42.548;22.968;2022-08-19T05:09:00;12.50;;;8.77;;
10517;SDS011;5307;42.548;22.968;2022-08-19T05:11:29;13.25;;;8.63;;
10517;SDS011;5307;42.548;22.968;2022-08-19T05:13:57;14.70;;;9.07;;
10517;SDS011;5307;42.548;22.968;2022-08-19T05:16:25;11.32;;;8.80;;
10517;SDS011;5307;42.548;22.968;2022-08-19T05:18:53;15.30;;;8.20;;
10517;SDS011;5307;42.548;22.968;2022-08-19T05:21:39;15.23;;;9.00;;
10517;SDS011;5307;42.548;22.968;2022-08-19T05:24:24;14.27;;;8.27;;
10517;SDS011;5307;42.548;22.968;2022-08-19T05:26:52;13.15;;;8.75;;
10517;SDS011;5307;42.548;22.968;2022-08-19T05:29:22;11.07;;;7.95;;
10517;SDS011;5307;42.548;22.968;2022-08-19T05:31:50;17.92;;;8.07;;
10517;SDS011;5307;42.548;22.968;2022-08-19T05:34:18;12.85;;;8.65;;
10517;SDS011;5307;42.548;22.968;2022-08-19T05:36:49;10.98;;;8.32;;
10517;SDS011;5307;42.548;22.968;2022-08-19T05:39:22;10.75;;;8.90;;
10517;SDS011;5307;42.548;22.968;2022-08-19T05:41:51;16.67;;;8.55;;
10517;SDS011;5307;42.548;22.968;2022-08-19T05:44:25;14.98;;;9.13;;
10517;SDS011;5307;42.548;22.968;2022-08-19T05:46:52;13.40;;;8.13;;
10517;SDS011;5307;42.548;22.968;2022-08-19T05:49:20;16.98;;;8.40;;
10517;SDS011;5307;42.548;22.968;2022-08-19T05:51:50;16.60;;;8.93;;
10517;SDS011;5307;42.548;22.968;2022-08-19T05:54:17;10.32;;;9.10;;
10517;SDS011;5307;42.548;22.968;2022-08-19T05:56:45;10.73;;;8.55;;
10517;SDS011;5307;42.548;22.968;2022-08-19T05:59:13;11.05;;;9.00;;
10517;SDS011;5307;42.548;22.968;2022-08-19T06:01:43;16.17;;;8.52;;
10517;SDS011;5307;42.548;22.968;2022-08-19T06:04:11;14.32;;;9.05;;
10517;SDS011;5307;42.548;22.968;2022-08-19T06:06:40;13.60;;;9.32;;
10517;SDS011;5307;42.548;22.968;2022-08-19T06:09:08;10.75;;;8.40;;
10517;SDS011;5307;42.548;22.968;2022-08-19T06:11:36;12.63;;;8.25;;
10517;SDS011;5307;42.548;22.968;2022-08-19T06:14:07;11.95;;;8.32;;
10517;SDS011;5307;42.548;22.968;2022-08-19T06:16:35;15.45;;;9.05;;
10517;SDS011;5307;42.548;22.968;2022-08-19T06:19:04;15.55;;;8.95;;
10517;SDS011;5307;42.548;22.968;2022-08-19T06:21:33;10.32;;;8.23;;
10517;SDS011;5307;42.548;22.968;2022-08-19T06:24:03;12.85;;;8.23;;
10517;SDS011;5307;42.548;22.968;2022-08-19T06:26:32;13.75;;;9.23;;
10517;SDS011;5307;42.548;22.968;2022-08-19T06:29:00;15.10;;;8.45;;
10517;SDS011;5307;42.548;22.968;2022-08-19T06:31:28;19.40;;;8.00;;
10517;SDS011;5307;42.548;22.968;2022-08-19T06:33:58;10.50;;;7.05;;
10517;SDS011;5307;42.548;22.968;2022-08-19T06:36:29;9.80;;;7.63;;
10517;SDS011;5307;42.548;22.968;2022-08-19T06:39:00;17.60;;;7.13;;
10517;SDS011;5307;42.548;22.968;2022-08-19T06:41:30;10.00;;;7.30;;
10517;SDS011;5307;42.548;22.968;2022-08-19T06:44:01;9.20;;;7.35;;
10517;SDS011;5307;42.548;22.968;2022-08-19T06:46:28;8.95;;;6.88;;
10517;SDS011;5307;42.548;22.968;2022-08-19T06:48:56;11.30;;;7.32;;
10517;SDS011;5307;42.548;22.968;2022-08-19T06:51:23;9.25;;;6.65;;
10517;SDS011;5307;42.548;22.968;2022-08-19T06:53:51;10.93;;;6.32;;
10517;SDS011;5307;42.548;22.968;2022-08-19T06:56:20;14.18;;;6.68;;
10517;SDS011;5307;42.548;22.968;2022-08-19T06:58:51;9.82;;;6.65;;
10517;SDS011;5307;42.548;22.968;2022-08-19T07:01:18;14.40;;;7.05;;
10517;SDS011;5307;42.548;22.968;2022-08-19T07:03:46;10.18;;;7.13;;
10517;SDS011;5307;42.548;22.968;2022-08-19T07:08:45;13.23;;;7.57;;
10517;SDS011;5307;42.548;22.968;2022-08-19T07:11:13;13.52;;;6.85;;
10517;SDS011;5307;42.548;22.968;2022-08-19T07:13:42;14.38;;;6.72;;
10517;SDS011;5307;42.548;22.968;2022-08-19T07:16:13;14.68;;;7.43;;
10517;SDS011;5307;42.548;22.968;2022-08-19T07:18:40;15.27;;;7.03;;
10517;SDS011;5307;42.548;22.968;2022-08-19T07:21:10;19.17;;;10.38;;
10517;SDS011;5307;42.548;22.968;2022-08-19T07:23:39;11.85;;;6.57;;
10517;SDS011;5307;42.548;22.968;2022-08-19T07:26:06;11.88;;;6.80;;
10517;SDS011;5307;42.548;22.968;2022-08-19T07:28:33;8.10;;;6.60;;
10517;SDS011;5307;42.548;22.968;2022-08-19T07:31:04;8.98;;;6.47;;
10517;SDS011;5307;42.548;22.968;2022-08-19T07:33:33;9.38;;;6.40;;
10517;SDS011;5307;42.548;22.968;2022-08-19T07:36:02;7.25;;;6.00;;
10517;SDS011;5307;42.548;22.968;2022-08-19T07:38:30;9.52;;;6.10;;
10517;SDS011;5307;42.548;22.968;2022-08-19T07:40:58;9.70;;;5.90;;
10517;SDS011;5307;42.548;22.968;2022-08-19T07:43:24;6.43;;;5.70;;
10517;SDS011;5307;42.548;22.968;2022-08-19T07:45:51;7.38;;;5.97;;
10517;SDS011;5307;42.548;22.968;2022-08-19T07:48:21;9.23;;;6.43;;
10517;SDS011;5307;42.548;22.968;2022-08-19T07:50:52;15.50;;;7.07;;
10517;SDS011;5307;42.548;22.968;2022-08-19T07:53:19;11.43;;;6.05;;
10517;SDS011;5307;42.548;22.968;2022-08-19T07:55:46;12.73;;;6.53;;
10517;SDS011;5307;42.548;22.968;2022-08-19T07:58:14;6.57;;;5.97;;
10517;SDS011;5307;42.548;22.968;2022-08-19T08:00:43;9.25;;;6.30;;
10517;SDS011;5307;42.548;22.968;2022-08-19T08:03:11;8.38;;;6.68;;
10517;SDS011;5307;42.548;22.968;2022-08-19T08:05:39;9.05;;;6.63;;
10517;SDS011;5307;42.548;22.968;2022-08-19T08:08:25;10.57;;;5.95;;
10517;SDS011;5307;42.548;22.968;2022-08-19T08:11:09;9.65;;;6.60;;
10517;SDS011;5307;42.548;22.968;2022-08-19T08:13:36;10.85;;;6.13;;
10517;SDS011;5307;42.548;22.968;2022-08-19T08:16:03;8.40;;;6.25;;
10517;SDS011;5307;42.548;22.968;2022-08-19T08:18:32;7.40;;;6.18;;
10517;SDS011;5307;42.548;22.968;2022-08-19T08:21:06;8.00;;;6.45;;
10517;SDS011;5307;42.548;22.968;2022-08-19T08:23:35;14.25;;;6.35;;
10517;SDS011;5307;42.548;22.968;2022-08-19T08:26:02;9.77;;;6.18;;
10517;SDS011;5307;42.548;22.968;2022-08-19T08:28:29;16.58;;;6.32;;
10517;SDS011;5307;42.548;22.968;2022-08-19T08:30:57;5.90;;;5.35;;
10517;SDS011;5307;42.548;22.968;2022-08-19T08:33:25;11.93;;;6.13;;
10517;SDS011;5307;42.548;22.968;2022-08-19T08:35:53;6.28;;;5.60;;
10517;SDS011;5307;42.548;22.968;2022-08-19T08:38:19;6.97;;;5.00;;
10517;SDS011;5307;42.548;22.968;2022-08-19T08:40:49;6.45;;;5.65;;
10517;SDS011;5307;42.548;22.968;2022-08-19T08:43:23;6.32;;;5.18;;
10517;SDS011;5307;42.548;22.968;2022-08-19T08:45:56;8.88;;;5.22;;
10517;SDS011;5307;42.548;22.968;2022-08-19T08:48:30;6.38;;;4.63;;
10517;SDS011;5307;42.548;22.968;2022-08-19T08:51:04;10.13;;;5.43;;
10517;SDS011;5307;42.548;22.968;2022-08-19T08:53:37;6.07;;;5.43;;
10517;SDS011;5307;42.548;22.968;2022-08-19T08:56:06;9.68;;;5.15;;
10517;SDS011;5307;42.548;22.968;2022-08-19T08:58:40;5.25;;;4.75;;
10517;SDS011;5307;42.548;22.968;2022-08-19T09:01:13;8.50;;;4.53;;
10517;SDS011;5307;42.548;22.968;2022-08-19T09:03:40;5.95;;;5.35;;
10517;SDS011;5307;42.548;22.968;2022-08-19T09:06:12;6.07;;;5.18;;
10517;SDS011;5307;42.548;22.968;2022-08-19T09:08:47;6.55;;;4.95;;
10517;SDS011;5307;42.548;22.968;2022-08-19T09:11:24;6.18;;;5.13;;
10517;SDS011;5307;42.548;22.968;2022-08-19T09:14:02;9.43;;;5.13;;
10517;SDS011;5307;42.548;22.968;2022-08-19T09:16:37;9.25;;;5.43;;
10517;SDS011;5307;42.548;22.968;2022-08-19T09:19:06;5.60;;;5.13;;
10517;SDS011;5307;42.548;22.968;2022-08-19T09:21:34;7.40;;;4.88;;
10517;SDS011;5307;42.548;22.968;2022-08-19T09:24:04;7.07;;;5.15;;
10517;SDS011;5307;42.548;22.968;2022-08-19T09:26:33;8.73;;;5.20;;
10517;SDS011;5307;42.548;22.968;2022-08-19T09:29:00;6.10;;;4.97;;
10517;SDS011;5307;42.548;22.968;2022-08-19T09:31:30;8.88;;;4.55;;
10517;SDS011;5307;42.548;22.968;2022-08-19T09:33:58;6.28;;;3.95;;
10517;SDS011;5307;42.548;22.968;2022-08-19T09:36:26;4.93;;;4.22;;
10517;SDS011;5307;42.548;22.968;2022-08-19T09:38:58;5.88;;;4.13;;
10517;SDS011;5307;42.548;22.968;2022-08-19T09:41:25;4.40;;;3.92;;
10517;SDS011;5307;42.548;22.968;2022-08-19T09:43:55;5.28;;;4.40;;
10517;SDS011;5307;42.548;22.968;2022-08-19T09:46:24;4.93;;;3.97;;
10517;SDS011;5307;42.548;22.968;2022-08-19T09:48:53;4.68;;;4.03;;
10517;SDS011;5307;42.548;22.968;2022-08-19T09:51:22;6.95;;;3.78;;
10517;SDS011;5307;42.548;22.968;2022-08-19T09:53:53;4.32;;;3.75;;
10517;SDS011;5307;42.548;22.968;2022-08-19T09:56:21;4.32;;;3.63;;
10517;SDS011;5307;42.548;22.968;2022-08-19T09:58:49;8.23;;;3.60;;
10517;SDS011;5307;42.548;22.968;2022-08-19T10:01:18;7.50;;;4.07;;
10517;SDS011;5307;42.548;22.968;2022-08-19T10:03:47;10.70;;;4.53;;
10517;SDS011;5307;42.548;22.968;2022-08-19T10:06:15;4.40;;;3.50;;
10517;SDS011;5307;42.548;22.968;2022-08-19T10:08:42;5.45;;;3.42;;
10517;SDS011;5307;42.548;22.968;2022-08-19T10:11:09;3.88;;;3.47;;
10517;SDS011;5307;42.548;22.968;2022-08-19T10:13:35;7.40;;;3.83;;
10517;SDS011;5307;42.548;22.968;2022-08-19T10:16:03;3.78;;;3.40;;
10517;SDS011;5307;42.548;22.968;2022-08-19T10:18:33;4.70;;;4.18;;
10517;SDS011;5307;42.548;22.968;2022-08-19T10:21:05;4.07;;;3.35;;
10517;SDS011;5307;42.548;22.968;2022-08-19T10:23:35;7.50;;;3.67;;
10517;SDS011;5307;42.548;22.968;2022-08-19T10:26:02;4.80;;;3.75;;
10517;SDS011;5307;42.548;22.968;2022-08-19T10:28:31;8.27;;;3.58;;
10517;SDS011;5307;42.548;22.968;2022-08-19T10:30:58;3.70;;;3.40;;
10517;SDS011;5307;42.548;22.968;2022-08-19T10:33:29;6.57;;;3.45;;
10517;SDS011;5307;42.548;22.968;2022-08-19T10:35:59;7.03;;;3.58;;
10517;SDS011;5307;42.548;22.968;2022-08-19T10:38:27;7.97;;;3.53;;
10517;SDS011;5307;42.548;22.968;2022-08-19T10:40:55;6.75;;;3.20;;
10517;SDS011;5307;42.548;22.968;2022-08-19T10:43:22;3.67;;;3.30;;
10517;SDS011;5307;42.548;22.968;2022-08-19T10:45:51;5.05;;;3.10;;
10517;SDS011;5307;42.548;22.968;2022-08-19T10:48:21;4.65;;;3.55;;
10517;SDS011;5307;42.548;22.968;2022-08-19T10:50:48;5.78;;;3.55;;
10517;SDS011;5307;42.548;22.968;2022-08-19T10:53:34;5.10;;;3.70;;
10517;SDS011;5307;42.548;22.968;2022-08-19T10:56:08;5.55;;;3.47;;
10517;SDS011;5307;42.548;22.968;2022-08-19T10:58:53;6.95;;;3.40;;
10517;SDS011;5307;42.548;22.968;2022-08-19T11:01:22;9.35;;;3.70;;
10517;SDS011;5307;42.548;22.968;2022-08-19T11:03:49;8.25;;;3.67;;
10517;SDS011;5307;42.548;22.968;2022-08-19T11:06:17;7.32;;;3.78;;
10517;SDS011;5307;42.548;22.968;2022-08-19T11:08:46;4.65;;;3.53;;
10517;SDS011;5307;42.548;22.968;2022-08-19T11:11:13;7.70;;;3.63;;
10517;SDS011;5307;42.548;22.968;2022-08-19T11:13:40;5.38;;;3.30;;
10517;SDS011;5307;42.548;22.968;2022-08-19T11:16:09;5.28;;;4.00;;
10517;SDS011;5307;42.548;22.968;2022-08-19T11:21:45;8.20;;;3.65;;
10517;SDS011;5307;42.548;22.968;2022-08-19T11:24:15;7.90;;;3.78;;
10517;SDS011;5307;42.548;22.968;2022-08-19T11:26:53;5.20;;;3.83;;
10517;SDS011;5307;42.548;22.968;2022-08-19T11:29:24;8.05;;;4.07;;
10517;SDS011;5307;42.548;22.968;2022-08-19T11:31:52;6.75;;;3.47;;
10517;SDS011;5307;42.548;22.968;2022-08-19T11:34:20;9.60;;;3.80;;
10517;SDS011;5307;42.548;22.968;2022-08-19T11:36:50;9.32;;;4.10;;
10517;SDS011;5307;42.548;22.968;2022-08-19T11:39:19;18.15;;;4.70;;
10517;SDS011;5307;42.548;22.968;2022-08-19T11:41:50;5.22;;;3.90;;
10517;SDS011;5307;42.548;22.968;2022-08-19T11:44:17;5.00;;;3.72;;
10517;SDS011;5307;42.548;22.968;2022-08-19T11:46:45;8.63;;;4.18;;
10517;SDS011;5307;42.548;22.968;2022-08-19T11:49:12;6.40;;;3.80;;
10517;SDS011;5307;42.548;22.968;2022-08-19T11:51:41;7.03;;;4.15;;
10517;SDS011;5307;42.548;22.968;2022-08-19T11:54:13;6.40;;;3.60;;
10517;SDS011;5307;42.548;22.968;2022-08-19T11:56:43;7.30;;;4.18;;
10517;SDS011;5307;42.548;22.968;2022-08-19T11:59:10;11.73;;;3.83;;
10517;SDS011;5307;42.548;22.968;2022-08-19T12:01:37;5.95;;;4.07;;
10517;SDS011;5307;42.548;22.968;2022-08-19T12:04:05;11.95;;;4.10;;
10517;SDS011;5307;42.548;22.968;2022-08-19T12:06:32;9.50;;;4.00;;
10517;SDS011;5307;42.548;22.968;2022-08-19T12:11:39;6.45;;;3.92;;
10517;SDS011;5307;42.548;22.968;2022-08-19T12:14:08;8.80;;;3.78;;
10517;SDS011;5307;42.548;22.968;2022-08-19T12:16:39;7.70;;;3.78;;
10517;SDS011;5307;42.548;22.968;2022-08-19T12:19:06;6.22;;;3.40;;
10517;SDS011;5307;42.548;22.968;2022-08-19T12:21:36;14.77;;;5.53;;
10517;SDS011;5307;42.548;22.968;2022-08-19T12:24:03;7.75;;;4.20;;
10517;SDS011;5307;42.548;22.968;2022-08-19T12:26:32;13.52;;;4.95;;
10517;SDS011;5307;42.548;22.968;2022-08-19T12:28:59;9.02;;;4.20;;
10517;SDS011;5307;42.548;22.968;2022-08-19T12:31:28;4.88;;;3.88;;
10517;SDS011;5307;42.548;22.968;2022-08-19T12:33:55;5.35;;;3.90;;
10517;SDS011;5307;42.548;22.968;2022-08-19T12:36:23;7.93;;;4.40;;
10517;SDS011;5307;42.548;22.968;2022-08-19T12:38:50;7.85;;;3.90;;
10517;SDS011;5307;42.548;22.968;2022-08-19T12:41:18;11.95;;;4.38;;
10517;SDS011;5307;42.548;22.968;2022-08-19T12:43:47;8.02;;;3.92;;
10517;SDS011;5307;42.548;22.968;2022-08-19T12:46:15;9.25;;;4.10;;
10517;SDS011;5307;42.548;22.968;2022-08-19T12:48:44;10.88;;;4.35;;
10517;SDS011;5307;42.548;22.968;2022-08-19T12:51:12;6.88;;;3.97;;
10517;SDS011;5307;42.548;22.968;2022-08-19T12:53:41;11.98;;;4.95;;
10517;SDS011;5307;42.548;22.968;2022-08-19T12:56:09;10.18;;;4.47;;
10517;SDS011;5307;42.548;22.968;2022-08-19T12:58:39;9.43;;;4.43;;
10517;SDS011;5307;42.548;22.968;2022-08-19T13:01:07;12.25;;;4.18;;
10517;SDS011;5307;42.548;22.968;2022-08-19T13:03:35;7.18;;;4.10;;
10517;SDS011;5307;42.548;22.968;2022-08-19T13:06:03;9.02;;;4.32;;
10517;SDS011;5307;42.548;22.968;2022-08-19T13:08:30;9.35;;;4.38;;
10517;SDS011;5307;42.548;22.968;2022-08-19T13:10:57;11.10;;;4.15;;
10517;SDS011;5307;42.548;22.968;2022-08-19T13:13:33;10.25;;;4.30;;
10517;SDS011;5307;42.548;22.968;2022-08-19T13:16:00;11.63;;;4.43;;
10517;SDS011;5307;42.548;22.968;2022-08-19T13:18:28;14.98;;;4.75;;
10517;SDS011;5307;42.548;22.968;2022-08-19T13:20:55;17.40;;;4.57;;
10517;SDS011;5307;42.548;22.968;2022-08-19T13:23:23;14.88;;;5.30;;
10517;SDS011;5307;42.548;22.968;2022-08-19T13:25:56;10.20;;;4.50;;
10517;SDS011;5307;42.548;22.968;2022-08-19T13:28:23;9.57;;;4.78;;
10517;SDS011;5307;42.548;22.968;2022-08-19T13:30:50;7.38;;;4.25;;
10517;SDS011;5307;42.548;22.968;2022-08-19T13:33:35;12.45;;;4.70;;
10517;SDS011;5307;42.548;22.968;2022-08-19T13:36:01;9.15;;;4.53;;
10517;SDS011;5307;42.548;22.968;2022-08-19T13:38:34;9.55;;;4.13;;
10517;SDS011;5307;42.548;22.968;2022-08-19T13:41:03;5.63;;;4.20;;
10517;SDS011;5307;42.548;22.968;2022-08-19T13:43:32;9.13;;;4.50;;
10517;SDS011;5307;42.548;22.968;2022-08-19T13:45:59;12.65;;;5.25;;
10517;SDS011;5307;42.548;22.968;2022-08-19T13:48:27;14.38;;;4.47;;
10517;SDS011;5307;42.548;22.968;2022-08-19T13:50:56;5.45;;;4.13;;
10517;SDS011;5307;42.548;22.968;2022-08-19T13:53:23;12.50;;;4.18;;
10517;SDS011;5307;42.548;22.968;2022-08-19T13:55:52;6.80;;;3.92;;
10517;SDS011;5307;42.548;22.968;2022-08-19T13:58:19;5.95;;;3.65;;
10517;SDS011;5307;42.548;22.968;2022-08-19T14:00:46;10.43;;;3.60;;
10517;SDS011;5307;42.548;22.968;2022-08-19T14:03:13;9.02;;;3.90;;
10517;SDS011;5307;42.548;22.968;2022-08-19T14:05:40;6.13;;;3.85;;
10517;SDS011;5307;42.548;22.968;2022-08-19T14:08:07;8.70;;;4.35;;
10517;SDS011;5307;42.548;22.968;2022-08-19T14:10:34;9.93;;;3.92;;
10517;SDS011;5307;42.548;22.968;2022-08-19T14:13:02;11.07;;;4.03;;
10517;SDS011;5307;42.548;22.968;2022-08-19T14:15:30;9.05;;;4.05;;
10517;SDS011;5307;42.548;22.968;2022-08-19T14:17:57;8.02;;;3.88;;
10517;SDS011;5307;42.548;22.968;2022-08-19T14:20:24;8.40;;;4.25;;
10517;SDS011;5307;42.548;22.968;2022-08-19T14:22:52;17.42;;;4.55;;
10517;SDS011;5307;42.548;22.968;2022-08-19T14:25:20;11.82;;;4.18;;
10517;SDS011;5307;42.548;22.968;2022-08-19T14:27:50;7.30;;;4.03;;
10517;SDS011;5307;42.548;22.968;2022-08-19T14:30:19;12.15;;;4.05;;
10517;SDS011;5307;42.548;22.968;2022-08-19T14:32:48;8.95;;;3.90;;
10517;SDS011;5307;42.548;22.968;2022-08-19T14:35:17;11.48;;;4.20;;
10517;SDS011;5307;42.548;22.968;2022-08-19T14:37:44;7.20;;;3.95;;
10517;SDS011;5307;42.548;22.968;2022-08-19T14:40:12;6.85;;;3.90;;
10517;SDS011;5307;42.548;22.968;2022-08-19T14:42:41;7.28;;;3.80;;
10517;SDS011;5307;42.548;22.968;2022-08-19T14:45:08;10.80;;;4.40;;
10517;SDS011;5307;42.548;22.968;2022-08-19T14:47:38;10.90;;;4.32;;
10517;SDS011;5307;42.548;22.968;2022-08-19T14:50:05;15.82;;;4.25;;
10517;SDS011;5307;42.548;22.968;2022-08-19T14:52:33;5.90;;;3.85;;
10517;SDS011;5307;42.548;22.968;2022-08-19T14:55:00;8.35;;;3.95;;
10517;SDS011;5307;42.548;22.968;2022-08-19T14:57:27;14.40;;;4.60;;
10517;SDS011;5307;42.548;22.968;2022-08-19T14:59:54;7.20;;;3.90;;
10517;SDS011;5307;42.548;22.968;2022-08-19T15:02:22;9.82;;;4.18;;